Terminal Aerodrome Forecast
Issued by NWS

Home | Current Version | Previous Version | Text Only | Print | Product List | Glossary On
Versions: 1 2 3 4 5 6 7 8 9 10 11 12
482
FTUS45 KABQ 131722
TAFSAF
TAF
KSAF 131722Z 1318/1418 36010KT P6SM SKC
     FM132000 26009KT P6SM SKC
     FM140130 34007KT P6SM SCT250=

USA.gov is the U.S. government's official web portal to all federal, state and local government web resources and services.